Time;durP1;ratioP1;P1;durP2;ratioP2;P2;SDS_P1;SDS_P2;PMS_P1;PMS_P2;Temp;Humidity;BMP_temperature;BMP_pressure;BME280_temperature;BME280_humidity;BME280_pressure;Samples;Min_cycle;Max_cycle;Signal;HPM_P1;HPM_P2
2021/03/30 00:00:36;;;;;;;;;19.75;18.25;;;;;;;;5009725;28;112032;-73
2021/03/30 00:03:02;;;;;;;;;21.00;19.75;;;;;;;;5007337;28;113725;-73
2021/03/30 00:05:28;;;;;;;;;18.25;18.00;;;;;;;;5008566;28;114311;-72
2021/03/30 00:07:54;;;;;;;;;22.75;19.75;;;;;;;;5012442;28;112036;-73
2021/03/30 00:10:22;;;;;;;;;18.50;18.00;;;;;;;;4998376;28;114115;-72
2021/03/30 00:12:48;;;;;;;;;18.75;18.00;;;;;;;;5009868;28;111971;-72
2021/03/30 00:15:15;;;;;;;;;28.00;22.50;;;;;;;;5006589;28;113610;-72
2021/03/30 00:17:42;;;;;;;;;23.50;18.00;;;;;;;;5001564;28;114209;-72
2021/03/30 00:20:09;;;;;;;;;23.00;20.00;;;;;;;;5009931;28;112240;-72
2021/03/30 00:22:35;;;;;;;;;23.25;20.25;;;;;;;;5006956;28;113737;-72
2021/03/30 00:25:01;;;;;;;;;24.25;22.50;;;;;;;;5007656;28;114729;-73
2021/03/30 00:27:27;;;;;;;;;20.00;18.75;;;;;;;;5007471;28;112711;-73
2021/03/30 00:29:53;;;;;;;;;23.00;19.50;;;;;;;;5010826;28;113540;-72
2021/03/30 00:32:19;;;;;;;;;26.50;21.75;;;;;;;;5009239;28;111954;-72
2021/03/30 00:34:46;;;;;;;;;24.25;18.50;;;;;;;;5006368;28;113411;-72
2021/03/30 00:37:12;;;;;;;;;22.50;20.25;;;;;;;;5008698;28;113858;-73
2021/03/30 00:39:38;;;;;;;;;23.00;18.00;;;;;;;;5007176;28;112511;-73
2021/03/30 00:42:04;;;;;;;;;21.00;19.00;;;;;;;;5005533;28;112356;-73
2021/03/30 00:44:30;;;;;;;;;21.00;18.00;;;;;;;;5006286;28;113979;-72
2021/03/30 00:46:56;;;;;;;;;19.00;18.75;;;;;;;;5007133;28;112313;-73
2021/03/30 00:49:23;;;;;;;;;24.25;21.75;;;;;;;;5008565;28;113615;-73
2021/03/30 00:51:50;;;;;;;;;26.75;21.50;;;;;;;;5010091;28;114202;-73
2021/03/30 00:54:16;;;;;;;;;19.00;17.75;;;;;;;;5008696;28;113896;-71
2021/03/30 00:56:42;;;;;;;;;17.75;17.00;;;;;;;;5006081;28;114303;-72
2021/03/30 00:59:09;;;;;;;;;23.00;20.00;;;;;;;;5009247;28;112651;-72
2021/03/30 01:01:35;;;;;;;;;21.75;19.00;;;;;;;;4999703;28;112834;-73
2021/03/30 01:04:01;;;;;;;;;19.25;18.00;;;;;;;;5006817;27;114156;-72
2021/03/30 01:06:27;;;;;;;;;18.50;18.50;;;;;;;;5007337;28;112087;-72
2021/03/30 01:08:59;;;;;;;;;22.50;20.25;;;;;;;;5006929;28;113762;-72
2021/03/30 01:11:33;;;;;;;;;20.25;18.75;;;;;;;;5006591;28;114679;-73
2021/03/30 01:14:06;;;;;;;;;18.50;17.00;;;;;;;;5011193;28;111947;-72
2021/03/30 01:16:36;;;;;;;;;22.00;19.00;;;;;;;;5005969;28;114144;-73
2021/03/30 01:19:05;;;;;;;;;20.00;18.25;;;;;;;;5008110;28;111912;-73
2021/03/30 01:21:49;;;;;;;;;21.00;18.75;;;;;;;;5006210;28;113539;-73
2021/03/30 01:24:20;;;;;;;;;23.50;22.00;;;;;;;;5001616;28;114551;-72
2021/03/30 01:26:51;;;;;;;;;20.25;19.00;;;;;;;;5009148;28;111886;-72
2021/03/30 01:29:20;;;;;;;;;19.75;16.50;;;;;;;;5006312;28;114650;-71
2021/03/30 01:31:48;;;;;;;;;20.00;17.00;;;;;;;;5000810;28;112914;-72
2021/03/30 01:34:15;;;;;;;;;21.00;17.75;;;;;;;;5008884;28;112019;-71
2021/03/30 01:36:43;;;;;;;;;19.50;19.25;;;;;;;;5008959;28;113593;-72
2021/03/30 01:39:10;;;;;;;;;21.50;19.50;;;;;;;;5004951;28;112000;-72
2021/03/30 01:41:36;;;;;;;;;20.25;18.25;;;;;;;;5007946;28;113557;-72
2021/03/30 01:44:03;;;;;;;;;14.50;13.75;;;;;;;;5005247;28;114188;-73
2021/03/30 01:46:31;;;;;;;;;24.00;20.25;;;;;;;;5006534;28;111979;-72
2021/03/30 01:48:58;;;;;;;;;22.50;20.00;;;;;;;;5006453;28;113892;-72
2021/03/30 01:51:25;;;;;;;;;20.25;20.25;;;;;;;;5006075;28;114652;-73
2021/03/30 01:53:51;;;;;;;;;20.50;20.00;;;;;;;;5007334;28;113308;-73
2021/03/30 01:56:18;;;;;;;;;23.00;19.00;;;;;;;;5008927;28;113763;-72
2021/03/30 01:58:44;;;;;;;;;22.25;21.00;;;;;;;;5007995;28;111843;-72
2021/03/30 02:01:13;;;;;;;;;19.25;19.25;;;;;;;;5004688;28;115050;-73
2021/03/30 02:03:40;;;;;;;;;20.00;17.00;;;;;;;;5000199;28;114373;-73
2021/03/30 02:06:07;;;;;;;;;21.25;20.25;;;;;;;;5008340;28;112016;-73
2021/03/30 02:08:34;;;;;;;;;19.25;19.25;;;;;;;;4994327;28;113956;-73
2021/03/30 02:11:00;;;;;;;;;7.25;6.00;;;;;;;;5000388;28;113410;-72
2021/03/30 02:13:29;;;;;;;;;21.00;19.50;;;;;;;;4997309;28;112505;-73
2021/03/30 02:15:57;;;;;;;;;18.75;16.25;;;;;;;;5006190;28;114116;-74
2021/03/30 02:18:25;;;;;;;;;20.75;19.00;;;;;;;;5009678;28;114067;-72
2021/03/30 02:20:54;;;;;;;;;19.75;17.00;;;;;;;;5005715;28;113701;-73
2021/03/30 02:23:22;;;;;;;;;20.00;17.00;;;;;;;;5005942;28;114157;-73
2021/03/30 02:25:49;;;;;;;;;19.00;17.67;;;;;;;;5005256;28;112037;-72
2021/03/30 02:28:16;;;;;;;;;20.67;18.67;;;;;;;;5003512;28;112855;-72
2021/03/30 02:30:43;;;;;;;;;20.00;18.67;;;;;;;;4998735;28;114316;-72
2021/03/30 02:33:12;;;;;;;;;14.67;14.67;;;;;;;;4998084;28;111990;-73
2021/03/30 02:35:38;;;;;;;;;24.67;17.33;;;;;;;;5000391;28;113724;-73
2021/03/30 02:38:06;;;;;;;;;19.67;14.33;;;;;;;;5002686;28;113981;-72
2021/03/30 02:40:32;;;;;;;;;19.33;18.00;;;;;;;;5010718;28;112059;-73
2021/03/30 02:42:59;;;;;;;;;23.00;20.33;;;;;;;;5004503;28;113379;-73
2021/03/30 02:45:30;;;;;;;;;21.00;19.00;;;;;;;;5005687;28;112159;-72
2021/03/30 02:47:58;;;;;;;;;21.00;18.00;;;;;;;;5003114;28;112167;-72
2021/03/30 02:50:25;;;;;;;;;19.67;19.00;;;;;;;;5004535;28;114236;-71
2021/03/30 02:52:52;;;;;;;;;20.33;18.67;;;;;;;;5006481;28;112188;-71
2021/03/30 02:55:19;;;;;;;;;21.00;16.33;;;;;;;;5004697;28;113477;-71
2021/03/30 02:57:45;;;;;;;;;20.67;18.67;;;;;;;;5006644;28;115024;-72
2021/03/30 03:00:13;;;;;;;;;20.33;19.33;;;;;;;;4997466;28;111956;-72
2021/03/30 03:02:41;;;;;;;;;29.00;20.67;;;;;;;;5007808;28;113741;-72
2021/03/30 03:05:08;;;;;;;;;21.00;20.00;;;;;;;;4995436;28;112177;-71
2021/03/30 03:07:35;;;;;;;;;19.33;16.00;;;;;;;;5006689;28;113675;-72
2021/03/30 03:10:01;;;;;;;;;25.33;18.33;;;;;;;;5003864;28;114043;-73
2021/03/30 03:12:29;;;;;;;;;26.33;20.33;;;;;;;;5005980;28;111824;-72
2021/03/30 03:14:56;;;;;;;;;20.33;18.33;;;;;;;;5005493;28;113519;-73
2021/03/30 03:17:23;;;;;;;;;17.33;17.33;;;;;;;;5004486;28;116521;-72
2021/03/30 03:19:49;;;;;;;;;25.33;20.33;;;;;;;;5006048;28;112205;-71
2021/03/30 03:22:15;;;;;;;;;18.67;18.67;;;;;;;;5004511;28;113542;-71
2021/03/30 03:24:41;;;;;;;;;22.33;18.00;;;;;;;;5006087;28;112609;-72
2021/03/30 03:27:07;;;;;;;;;21.00;19.00;;;;;;;;4999392;28;113649;-72
2021/03/30 03:29:35;;;;;;;;;21.00;21.00;;;;;;;;5008067;28;114510;-73
2021/03/30 03:32:01;;;;;;;;;18.67;16.33;;;;;;;;4998970;28;112697;-70
2021/03/30 03:34:27;;;;;;;;;22.67;19.00;;;;;;;;5003205;28;113356;-72
2021/03/30 03:36:52;;;;;;;;;20.00;18.00;;;;;;;;5007475;28;113900;-72
2021/03/30 03:39:19;;;;;;;;;20.67;20.00;;;;;;;;5009665;28;114019;-72
2021/03/30 03:41:45;;;;;;;;;24.00;20.00;;;;;;;;5007521;28;113735;-72
2021/03/30 03:44:12;;;;;;;;;20.67;20.00;;;;;;;;5005246;28;114149;-72
2021/03/30 03:46:40;;;;;;;;;14.33;14.33;;;;;;;;5002453;28;113746;-72
2021/03/30 03:49:06;;;;;;;;;24.33;23.00;;;;;;;;5009377;28;114730;-71
2021/03/30 03:51:35;;;;;;;;;23.00;17.67;;;;;;;;5006906;28;111920;-71
2021/03/30 03:54:02;;;;;;;;;19.33;18.00;;;;;;;;5009349;28;113547;-71
2021/03/30 03:56:29;;;;;;;;;23.33;18.67;;;;;;;;5006773;28;114786;-71
2021/03/30 03:58:58;;;;;;;;;17.00;17.00;;;;;;;;5004151;28;112252;-71
2021/03/30 04:01:26;;;;;;;;;19.33;19.00;;;;;;;;5008846;28;113494;-72
2021/03/30 04:03:57;;;;;;;;;20.67;19.33;;;;;;;;5007079;28;115264;-74
2021/03/30 04:06:30;;;;;;;;;23.67;20.00;;;;;;;;5012429;28;112049;-72
2021/03/30 04:08:56;;;;;;;;;21.00;19.67;;;;;;;;5007597;28;114009;-73
2021/03/30 04:11:23;;;;;;;;;20.33;18.00;;;;;;;;5008013;28;111888;-72
2021/03/30 04:13:50;;;;;;;;;21.33;20.33;;;;;;;;5003299;28;112674;-73
2021/03/30 04:16:16;;;;;;;;;23.67;17.67;;;;;;;;4999228;28;113902;-72
2021/03/30 04:18:43;;;;;;;;;18.67;17.33;;;;;;;;5003104;28;112735;-72
2021/03/30 04:21:12;;;;;;;;;28.00;23.33;;;;;;;;5006724;28;113988;-72
2021/03/30 04:23:43;;;;;;;;;25.00;22.00;;;;;;;;5002448;28;114550;-73
2021/03/30 04:26:09;;;;;;;;;18.00;18.00;;;;;;;;5003150;28;111946;-73
2021/03/30 04:28:35;;;;;;;;;20.67;18.67;;;;;;;;5012915;28;113356;-72
2021/03/30 04:31:01;;;;;;;;;21.67;21.67;;;;;;;;5006920;28;112034;-72
2021/03/30 04:33:27;;;;;;;;;23.33;20.33;;;;;;;;5008445;28;113925;-72
2021/03/30 04:35:53;;;;;;;;;28.33;22.00;;;;;;;;5006684;28;113899;-72
2021/03/30 04:38:20;;;;;;;;;20.00;19.00;;;;;;;;5007846;28;112286;-72
2021/03/30 04:40:51;;;;;;;;;22.00;19.67;;;;;;;;5008436;28;113565;-73
2021/03/30 04:43:17;;;;;;;;;24.00;23.00;;;;;;;;5006150;28;114168;-71
2021/03/30 04:45:43;;;;;;;;;18.33;15.33;;;;;;;;5004776;28;111866;-72
2021/03/30 04:48:09;;;;;;;;;20.33;18.33;;;;;;;;5009551;28;113350;-72
2021/03/30 04:50:35;;;;;;;;;19.67;19.00;;;;;;;;5009383;28;114447;-72
2021/03/30 04:53:01;;;;;;;;;22.67;18.67;;;;;;;;5004670;28;114015;-72
2021/03/30 04:55:28;;;;;;;;;23.00;22.00;;;;;;;;5006007;28;113922;-73
2021/03/30 04:57:54;;;;;;;;;24.33;19.67;;;;;;;;5007606;28;112034;-73
2021/03/30 05:00:20;;;;;;;;;22.33;21.33;;;;;;;;5008300;28;113781;-72
2021/03/30 05:02:46;;;;;;;;;25.33;22.67;;;;;;;;5005963;28;115106;-71
2021/03/30 05:05:15;;;;;;;;;20.67;18.67;;;;;;;;5004819;28;111834;-72
2021/03/30 05:07:41;;;;;;;;;25.67;22.33;;;;;;;;5009222;28;113479;-72
2021/03/30 05:10:08;;;;;;;;;27.00;20.67;;;;;;;;5004571;28;114077;-72
2021/03/30 05:12:35;;;;;;;;;26.00;23.00;;;;;;;;5013314;28;112726;-71
2021/03/30 05:15:01;;;;;;;;;18.33;16.33;;;;;;;;5004966;28;114514;-71
2021/03/30 05:17:27;;;;;;;;;20.00;18.67;;;;;;;;5008017;28;111830;-72
2021/03/30 05:19:53;;;;;;;;;23.00;22.00;;;;;;;;5006916;28;113557;-71
2021/03/30 05:22:19;;;;;;;;;24.33;22.67;;;;;;;;5006722;28;113966;-71
2021/03/30 05:24:45;;;;;;;;;19.33;17.00;;;;;;;;4996795;28;113122;-72
2021/03/30 05:27:11;;;;;;;;;19.00;17.00;;;;;;;;5008532;28;114007;-73
2021/03/30 05:29:43;;;;;;;;;21.00;19.00;;;;;;;;5004519;28;113953;-71
2021/03/30 05:32:10;;;;;;;;;23.33;22.00;;;;;;;;5002030;28;112274;-71
2021/03/30 05:34:36;;;;;;;;;23.33;20.00;;;;;;;;5004502;28;113633;-73
2021/03/30 05:37:02;;;;;;;;;25.00;25.00;;;;;;;;5007630;28;112040;-73
2021/03/30 05:39:28;;;;;;;;;36.00;27.33;;;;;;;;5006150;28;113595;-73
2021/03/30 05:41:54;;;;;;;;;17.67;17.33;;;;;;;;5006466;28;113984;-73
2021/03/30 05:44:20;;;;;;;;;19.67;19.33;;;;;;;;4998911;28;112275;-72
2021/03/30 05:46:57;;;;;;;;;23.00;19.67;;;;;;;;5005279;28;113697;-69
2021/03/30 05:49:23;;;;;;;;;23.67;21.33;;;;;;;;5006412;28;114128;-70
2021/03/30 05:51:50;;;;;;;;;23.00;18.67;;;;;;;;5001025;28;112005;-67
2021/03/30 05:54:17;;;;;;;;;26.00;25.67;;;;;;;;5010657;28;113503;-67
2021/03/30 05:56:43;;;;;;;;;20.00;20.00;;;;;;;;5005814;28;112073;-67
2021/03/30 05:59:11;;;;;;;;;26.67;26.00;;;;;;;;5008720;28;113458;-68
2021/03/30 06:01:38;;;;;;;;;23.00;21.67;;;;;;;;4999933;28;114033;-68
2021/03/30 06:04:05;;;;;;;;;26.00;23.00;;;;;;;;5008141;28;112008;-68
2021/03/30 06:06:31;;;;;;;;;21.00;21.00;;;;;;;;5005147;28;114543;-68
2021/03/30 06:08:57;;;;;;;;;20.67;20.00;;;;;;;;5006229;28;114143;-69
2021/03/30 06:11:23;;;;;;;;;27.00;23.33;;;;;;;;5008950;28;111949;-67
2021/03/30 06:13:51;;;;;;;;;20.00;20.00;;;;;;;;5006893;28;113611;-67
2021/03/30 06:16:24;;;;;;;;;25.33;21.00;;;;;;;;5008136;28;113981;-69
2021/03/30 06:19:00;;;;;;;;;18.33;17.00;;;;;;;;5002616;28;113458;-70
2021/03/30 06:21:30;;;;;;;;;27.67;24.67;;;;;;;;5004777;28;114070;-69
2021/03/30 06:23:59;;;;;;;;;38.00;30.33;;;;;;;;5005743;28;112150;-71
2021/03/30 06:26:26;;;;;;;;;26.67;22.67;;;;;;;;4999467;28;112611;-69
2021/03/30 06:28:52;;;;;;;;;30.00;25.00;;;;;;;;5005192;28;114058;-70
2021/03/30 06:31:18;;;;;;;;;21.67;21.67;;;;;;;;5006170;28;112047;-67
2021/03/30 06:33:45;;;;;;;;;23.67;23.00;;;;;;;;5007621;28;113567;-68
2021/03/30 06:36:12;;;;;;;;;28.00;22.33;;;;;;;;5003568;28;114680;-68
2021/03/30 06:38:49;;;;;;;;;31.33;22.00;;;;;;;;5012178;28;112305;-69
2021/03/30 06:41:45;;;;;;;;;25.67;23.67;;;;;;;;5001286;28;114678;-69
2021/03/30 06:44:27;;;;;;;;;28.33;23.67;;;;;;;;4999745;28;112066;-68
2021/03/30 06:47:05;;;;;;;;;26.00;23.00;;;;;;;;5004028;28;112835;-69
2021/03/30 06:49:32;;;;;;;;;30.33;26.33;;;;;;;;5003605;28;113998;-68
2021/03/30 06:51:58;;;;;;;;;31.33;27.33;;;;;;;;5004873;28;112033;-69
2021/03/30 06:54:34;;;;;;;;;35.33;30.67;;;;;;;;4995505;28;113302;-72
2021/03/30 06:57:00;;;;;;;;;32.67;25.67;;;;;;;;4994366;28;112906;-67
2021/03/30 06:59:27;;;;;;;;;27.00;27.00;;;;;;;;5004871;28;111846;-74
2021/03/30 07:01:54;;;;;;;;;28.00;26.67;;;;;;;;5009020;27;114994;-68
2021/03/30 07:04:20;;;;;;;;;32.67;31.00;;;;;;;;4999598;28;111986;-68
2021/03/30 07:06:50;;;;;;;;;32.33;28.33;;;;;;;;5008360;28;113058;-69
2021/03/30 07:09:16;;;;;;;;;37.00;32.00;;;;;;;;5009222;28;114169;-67
2021/03/30 07:11:44;;;;;;;;;30.67;30.00;;;;;;;;5008137;28;111833;-72
2021/03/30 07:14:10;;;;;;;;;28.33;25.33;;;;;;;;5014022;28;113486;-71
2021/03/30 07:16:39;;;;;;;;;30.67;27.33;;;;;;;;5003310;28;113347;-71
2021/03/30 07:19:06;;;;;;;;;38.00;34.33;;;;;;;;5001847;28;112044;-70
2021/03/30 07:21:34;;;;;;;;;29.33;26.33;;;;;;;;5008907;28;113688;-71
2021/03/30 07:24:03;;;;;;;;;31.33;29.33;;;;;;;;5004236;28;114010;-72
2021/03/30 07:26:32;;;;;;;;;33.67;30.00;;;;;;;;4997427;28;113839;-73
2021/03/30 07:29:02;;;;;;;;;34.00;28.00;;;;;;;;5005177;28;112842;-73
2021/03/30 07:31:29;;;;;;;;;37.00;33.67;;;;;;;;5006545;28;112362;-72
2021/03/30 07:33:58;;;;;;;;;25.67;22.00;;;;;;;;5007222;28;113547;-72
2021/03/30 07:36:27;;;;;;;;;8.00;0.33;;;;;;;;5004501;28;114060;-72
2021/03/30 07:38:55;;;;;;;;;39.67;34.00;;;;;;;;5007217;28;111936;-72
2021/03/30 07:41:21;;;;;;;;;39.67;35.00;;;;;;;;5006382;28;113478;-72
2021/03/30 07:43:48;;;;;;;;;39.00;36.00;;;;;;;;5005674;28;113251;-72
2021/03/30 07:46:16;;;;;;;;;35.67;32.33;;;;;;;;5010586;28;112017;-69
2021/03/30 07:48:42;;;;;;;;;35.33;32.33;;;;;;;;5002462;28;113908;-69
2021/03/30 07:51:11;;;;;;;;;31.67;31.67;;;;;;;;5006719;28;112494;-70
2021/03/30 07:53:42;;;;;;;;;39.00;34.00;;;;;;;;5004899;28;113489;-72
2021/03/30 07:56:09;;;;;;;;;38.67;34.67;;;;;;;;5002683;28;114013;-70
2021/03/30 07:58:39;;;;;;;;;32.00;31.00;;;;;;;;5005257;28;112944;-72
2021/03/30 08:01:05;;;;;;;;;34.00;30.33;;;;;;;;5003963;28;113454;-72
2021/03/30 08:03:34;;;;;;;;;37.67;35.67;;;;;;;;5006649;28;114003;-74
2021/03/30 08:06:11;;;;;;;;;34.67;30.67;;;;;;;;5012509;28;113055;-72
2021/03/30 08:08:48;;;;;;;;;25.67;24.00;;;;;;;;5004953;28;114085;-72
2021/03/30 08:11:14;;;;;;;;;35.00;30.33;;;;;;;;5000829;28;111966;-72
2021/03/30 08:13:52;;;;;;;;;26.67;25.33;;;;;;;;5005760;28;113682;-72
2021/03/30 08:16:19;;;;;;;;;41.67;33.33;;;;;;;;5006843;28;113918;-72
2021/03/30 08:18:46;;;;;;;;;34.33;32.00;;;;;;;;5006339;28;112424;-72
2021/03/30 08:21:14;;;;;;;;;32.33;31.00;;;;;;;;5008034;28;113591;-74
2021/03/30 08:23:59;;;;;;;;;38.33;35.33;;;;;;;;5005261;28;114053;-73
2021/03/30 08:26:31;;;;;;;;;35.33;32.33;;;;;;;;5000535;28;112245;-73
2021/03/30 08:28:58;;;;;;;;;37.33;32.00;;;;;;;;5004031;28;113503;-71
2021/03/30 08:31:26;;;;;;;;;34.33;32.67;;;;;;;;5006133;28;111925;-72
2021/03/30 08:33:54;;;;;;;;;41.33;35.00;;;;;;;;5008159;28;114127;-73
2021/03/30 08:36:22;;;;;;;;;25.50;20.50;;;;;;;;5007106;28;115087;-74
2021/03/30 08:38:49;;;;;;;;;37.00;34.00;;;;;;;;5007331;28;111963;-74
2021/03/30 08:41:33;;;;;;;;;37.50;34.50;;;;;;;;5008236;28;113657;-73
2021/03/30 08:44:14;;;;;;;;;34.50;27.50;;;;;;;;5008000;28;114498;-75
2021/03/30 08:46:42;;;;;;;;;31.25;29.50;;;;;;;;5001105;28;112050;-75
2021/03/30 08:49:27;;;;;;;;;29.75;29.25;;;;;;;;5009597;28;113636;-74
2021/03/30 08:51:53;;;;;;;;;33.75;32.00;;;;;;;;5002345;28;112892;-74
2021/03/30 08:54:23;;;;;;;;;38.75;33.50;;;;;;;;5007325;28;113471;-75
2021/03/30 08:56:50;;;;;;;;;33.25;29.75;;;;;;;;5009164;28;114354;-73
2021/03/30 08:59:19;;;;;;;;;37.00;33.00;;;;;;;;5008683;28;112177;-76
2021/03/30 09:01:45;;;;;;;;;34.00;31.00;;;;;;;;5004091;28;114057;-74
2021/03/30 09:04:11;;;;;;;;;28.50;26.00;;;;;;;;5000953;28;113649;-75
2021/03/30 09:06:40;;;;;;;;;26.75;25.25;;;;;;;;5001421;28;112385;-75
2021/03/30 09:09:19;;;;;;;;;28.25;22.75;;;;;;;;5000591;28;113665;-75
2021/03/30 09:11:45;;;;;;;;;25.50;24.00;;;;;;;;5000882;28;114633;-75
2021/03/30 09:14:15;;;;;;;;;27.75;27.00;;;;;;;;5008886;28;112817;-74
2021/03/30 09:16:43;;;;;;;;;27.75;24.50;;;;;;;;5004075;28;114910;-74
2021/03/30 09:19:13;;;;;;;;;31.75;26.50;;;;;;;;4999782;28;112477;-75
2021/03/30 09:21:40;;;;;;;;;25.25;22.50;;;;;;;;5004938;28;113592;-74
2021/03/30 09:24:08;;;;;;;;;29.25;25.50;;;;;;;;5001870;28;114235;-74
2021/03/30 09:26:37;;;;;;;;;26.00;23.00;;;;;;;;4998522;28;112041;-73
2021/03/30 09:29:03;;;;;;;;;26.75;25.00;;;;;;;;4998143;28;113930;-73
2021/03/30 09:31:29;;;;;;;;;32.00;28.50;;;;;;;;4999135;28;114767;-76
2021/03/30 09:33:56;;;;;;;;;25.75;25.25;;;;;;;;5000744;28;112143;-74
2021/03/30 09:36:22;;;;;;;;;28.00;26.00;;;;;;;;5003379;28;112981;-74
2021/03/30 09:38:49;;;;;;;;;30.50;27.25;;;;;;;;5001401;28;112398;-74
2021/03/30 09:41:30;;;;;;;;;27.50;25.25;;;;;;;;5001224;28;113992;-77
2021/03/30 09:43:56;;;;;;;;;24.75;23.50;;;;;;;;5006259;28;113529;-75
2021/03/30 09:46:22;;;;;;;;;87.00;81.33;;;;;;;;5007223;28;111920;-75
2021/03/30 09:48:48;;;;;;;;;65.75;53.50;;;;;;;;5006876;28;113957;-75
2021/03/30 09:51:14;;;;;;;;;48.25;39.75;;;;;;;;5000324;28;114478;-74
2021/03/30 09:53:42;;;;;;;;;29.75;29.00;;;;;;;;5001776;28;112005;-75
2021/03/30 09:56:17;;;;;;;;;28.75;26.50;;;;;;;;4998754;28;114077;-71
2021/03/30 09:58:44;;;;;;;;;25.75;24.00;;;;;;;;4998633;28;113159;-72
2021/03/30 10:01:11;;;;;;;;;24.00;21.33;;;;;;;;4997362;28;114036;-72
2021/03/30 10:03:37;;;;;;;;;22.75;21.00;;;;;;;;4997082;28;114638;-72
2021/03/30 10:06:03;;;;;;;;;21.67;20.00;;;;;;;;5001895;28;112721;-71
2021/03/30 10:08:30;;;;;;;;;25.00;24.25;;;;;;;;5004589;28;113653;-70
2021/03/30 10:10:56;;;;;;;;;23.33;23.33;;;;;;;;5006380;28;114061;-71
2021/03/30 10:13:24;;;;;;;;;20.33;20.00;;;;;;;;5006281;28;112610;-71
2021/03/30 10:15:50;;;;;;;;;24.67;22.67;;;;;;;;5005926;28;114652;-71
2021/03/30 10:18:17;;;;;;;;;22.00;22.00;;;;;;;;5009824;28;114365;-75
2021/03/30 10:20:45;;;;;;;;;20.67;19.33;;;;;;;;5005891;28;113724;-73
2021/03/30 10:23:15;;;;;;;;;20.67;18.67;;;;;;;;5003076;28;114916;-73
2021/03/30 10:25:42;;;;;;;;;21.33;20.33;;;;;;;;4997017;28;112286;-71
2021/03/30 10:28:08;;;;;;;;;26.00;23.33;;;;;;;;4995836;28;114050;-73
2021/03/30 10:30:40;;;;;;;;;22.00;21.67;;;;;;;;5000893;28;114335;-73
2021/03/30 10:33:06;;;;;;;;;22.67;22.67;;;;;;;;4996620;28;111897;-74
2021/03/30 10:35:32;;;;;;;;;24.75;24.00;;;;;;;;5004390;28;113787;-73
2021/03/30 10:37:59;;;;;;;;;25.25;24.00;;;;;;;;4992312;28;114020;-73
2021/03/30 10:40:33;;;;;;;;;24.75;22.50;;;;;;;;5008129;28;112829;-73
2021/03/30 10:43:13;;;;;;;;;30.50;26.00;;;;;;;;5004400;28;114230;-73
2021/03/30 10:45:40;;;;;;;;;20.75;20.50;;;;;;;;4994320;28;113497;-73
2021/03/30 10:48:08;;;;;;;;;21.25;21.00;;;;;;;;5000065;28;112114;-76
2021/03/30 10:50:34;;;;;;;;;24.50;24.50;;;;;;;;4989936;28;115448;-81
2021/03/30 10:53:00;;;;;;;;;22.75;21.75;;;;;;;;5005031;28;112236;-75
2021/03/30 10:55:27;;;;;;;;;21.50;19.50;;;;;;;;5004905;28;113493;-76
2021/03/30 10:57:53;;;;;;;;;27.75;24.50;;;;;;;;5003705;28;114318;-74
2021/03/30 11:00:20;;;;;;;;;24.75;21.25;;;;;;;;4998929;28;111951;-74
2021/03/30 11:02:47;;;;;;;;;22.00;20.75;;;;;;;;5003460;28;113866;-74
2021/03/30 11:05:13;;;;;;;;;18.75;17.75;;;;;;;;5006268;28;112243;-74
2021/03/30 11:07:39;;;;;;;;;20.75;16.75;;;;;;;;4993214;28;113999;-73
2021/03/30 11:10:09;;;;;;;;;19.00;16.25;;;;;;;;4999951;28;116430;-74
2021/03/30 11:12:35;;;;;;;;;16.75;14.00;;;;;;;;4998590;28;113503;-75
2021/03/30 11:15:01;;;;;;;;;19.25;17.25;;;;;;;;5004176;28;113484;-75
2021/03/30 11:17:27;;;;;;;;;12.00;11.50;;;;;;;;5003509;28;114612;-74
2021/03/30 11:19:54;;;;;;;;;19.50;16.25;;;;;;;;5003647;28;112065;-73
2021/03/30 11:22:20;;;;;;;;;13.25;13.25;;;;;;;;5005027;28;113684;-73
2021/03/30 11:24:46;;;;;;;;;14.50;12.00;;;;;;;;5003771;28;115606;-77
2021/03/30 11:27:12;;;;;;;;;14.00;14.00;;;;;;;;5005687;28;113994;-76
2021/03/30 11:29:42;;;;;;;;;23.50;20.00;;;;;;;;5002564;28;114431;-77
2021/03/30 11:32:30;;;;;;;;;11.75;10.75;;;;;;;;4991203;28;112737;-77
2021/03/30 11:35:00;;;;;;;;;14.25;13.75;;;;;;;;5000122;28;113505;-77
2021/03/30 11:40:13;;;;;;;;;17.50;17.00;;;;;;;;4992510;28;112682;-78
2021/03/30 11:42:39;;;;;;;;;17.25;16.25;;;;;;;;5000336;28;114005;-79
2021/03/30 11:45:06;;;;;;;;;10.00;10.00;;;;;;;;5004932;28;114165;-78
2021/03/30 11:47:32;;;;;;;;;11.75;11.00;;;;;;;;5004978;28;111998;-74
2021/03/30 11:49:59;;;;;;;;;28.75;27.75;;;;;;;;5003052;27;114007;-75
2021/03/30 11:52:25;;;;;;;;;29.25;24.00;;;;;;;;5004773;28;111971;-75
2021/03/30 11:54:51;;;;;;;;;27.00;26.00;;;;;;;;5002011;28;113194;-76
2021/03/30 11:57:19;;;;;;;;;29.50;27.50;;;;;;;;5007278;28;114941;-75
2021/03/30 11:59:45;;;;;;;;;12.25;12.00;;;;;;;;5007896;28;112394;-73
2021/03/30 12:02:11;;;;;;;;;26.00;20.00;;;;;;;;5001885;28;113476;-74
2021/03/30 12:04:37;;;;;;;;;18.00;16.25;;;;;;;;5009201;28;113889;-72
2021/03/30 12:07:05;;;;;;;;;16.75;16.25;;;;;;;;5001347;28;112456;-76
2021/03/30 12:09:31;;;;;;;;;14.50;14.50;;;;;;;;5006876;28;113031;-78
2021/03/30 12:11:57;;;;;;;;;13.25;11.75;;;;;;;;5002060;28;112282;-75
2021/03/30 12:14:22;;;;;;;;;21.00;16.50;;;;;;;;5003593;28;113512;-77
2021/03/30 12:16:50;;;;;;;;;27.75;27.00;;;;;;;;5003200;28;113144;-76
2021/03/30 12:19:18;;;;;;;;;21.00;19.50;;;;;;;;5006518;28;112427;-76
2021/03/30 12:21:45;;;;;;;;;25.50;24.00;;;;;;;;5003931;28;113550;-75
2021/03/30 12:24:12;;;;;;;;;15.75;15.75;;;;;;;;5002168;28;114594;-75
2021/03/30 12:26:41;;;;;;;;;16.75;14.75;;;;;;;;5000554;28;112258;-75
2021/03/30 12:29:07;;;;;;;;;15.50;13.00;;;;;;;;5004853;28;113607;-74
2021/03/30 12:31:33;;;;;;;;;24.25;21.75;;;;;;;;4999241;28;111890;-74
2021/03/30 12:34:01;;;;;;;;;17.00;16.00;;;;;;;;4997526;28;112470;-74
2021/03/30 12:36:27;;;;;;;;;16.00;14.00;;;;;;;;5003746;28;114218;-76
2021/03/30 12:38:53;;;;;;;;;27.75;24.00;;;;;;;;5002150;28;112719;-74
2021/03/30 12:41:20;;;;;;;;;9.00;7.75;;;;;;;;5004607;28;113705;-75
2021/03/30 12:43:46;;;;;;;;;10.25;10.25;;;;;;;;5001398;28;114175;-78
2021/03/30 12:46:13;;;;;;;;;16.25;13.00;;;;;;;;5000245;28;113682;-70
2021/03/30 12:48:39;;;;;;;;;13.50;10.75;;;;;;;;5003937;28;113601;-72
2021/03/30 12:51:05;;;;;;;;;13.50;10.25;;;;;;;;5004856;28;115077;-72
2021/03/30 12:53:31;;;;;;;;;27.25;25.50;;;;;;;;5000131;28;113797;-73
2021/03/30 12:55:57;;;;;;;;;22.75;19.00;;;;;;;;5002971;28;114141;-72
2021/03/30 12:58:24;;;;;;;;;20.25;18.25;;;;;;;;5004923;28;112256;-73
2021/03/30 13:00:50;;;;;;;;;25.50;21.75;;;;;;;;5004094;28;113822;-72
2021/03/30 13:03:16;;;;;;;;;9.50;9.50;;;;;;;;5005737;28;113976;-73
2021/03/30 13:05:42;;;;;;;;;21.75;21.00;;;;;;;;5005939;28;113798;-72
2021/03/30 13:08:08;;;;;;;;;11.50;7.50;;;;;;;;5009835;28;113456;-71
2021/03/30 13:10:34;;;;;;;;;8.00;7.00;;;;;;;;5005497;28;113917;-72
2021/03/30 13:13:00;;;;;;;;;19.00;16.25;;;;;;;;5012369;28;112315;-73
2021/03/30 13:15:27;;;;;;;;;26.50;24.50;;;;;;;;5006015;28;113771;-69
2021/03/30 13:17:53;;;;;;;;;24.50;21.75;;;;;;;;5008134;28;111808;-68
2021/03/30 13:20:20;;;;;;;;;22.25;21.50;;;;;;;;4995947;28;113446;-69
2021/03/30 13:22:45;;;;;;;;;26.75;23.75;;;;;;;;5005811;28;114178;-69
2021/03/30 13:25:18;;;;;;;;;6.25;6.25;;;;;;;;5008456;28;112311;-71
2021/03/30 13:27:44;;;;;;;;;10.00;8.50;;;;;;;;4993784;28;114199;-77
2021/03/30 13:30:10;;;;;;;;;9.00;8.00;;;;;;;;5005034;28;113948;-73
2021/03/30 13:32:37;;;;;;;;;12.00;9.50;;;;;;;;5008234;28;111946;-73
2021/03/30 13:35:03;;;;;;;;;36.75;32.25;;;;;;;;5009202;28;113579;-70
2021/03/30 13:37:29;;;;;;;;;29.00;26.25;;;;;;;;5008838;28;112020;-71
2021/03/30 13:39:55;;;;;;;;;23.50;23.50;;;;;;;;5006618;28;113598;-79
2021/03/30 13:42:21;;;;;;;;;30.75;26.50;;;;;;;;5006618;28;114441;-77
2021/03/30 13:44:47;;;;;;;;;13.75;12.50;;;;;;;;5007504;28;112169;-78
2021/03/30 13:47:13;;;;;;;;;12.25;12.00;;;;;;;;5004405;28;113419;-79
2021/03/30 13:49:41;;;;;;;;;27.00;24.00;;;;;;;;5006758;28;113942;-79
2021/03/30 13:52:07;;;;;;;;;17.50;17.00;;;;;;;;5005284;28;112120;-79
2021/03/30 13:54:34;;;;;;;;;13.25;12.50;;;;;;;;4993520;28;114510;-79
2021/03/30 13:57:00;;;;;;;;;22.75;22.25;;;;;;;;5010775;28;114452;-79
2021/03/30 13:59:26;;;;;;;;;12.00;10.00;;;;;;;;5005979;28;113867;-79
2021/03/30 14:01:52;;;;;;;;;10.00;9.00;;;;;;;;5006099;28;114410;-79
2021/03/30 14:04:19;;;;;;;;;9.25;8.50;;;;;;;;5006994;28;111958;-79
2021/03/30 14:06:46;;;;;;;;;8.75;8.75;;;;;;;;5005891;28;113948;-77
2021/03/30 14:09:12;;;;;;;;;7.75;7.00;;;;;;;;5006883;28;114238;-80
2021/03/30 14:11:45;;;;;;;;;13.50;13.00;;;;;;;;5004897;28;112315;-79